createdAt,value
2022-12-03T00:01:46.851Z,95905.38
2022-12-03T00:04:15.234Z,95888.06
2022-12-03T00:06:43.624Z,95945.00
2022-12-03T00:09:11.978Z,95969.84
2022-12-03T00:11:40.341Z,95948.69
2022-12-03T00:14:10.119Z,95913.13
2022-12-03T00:16:38.382Z,95946.19
2022-12-03T00:19:07.859Z,95930.44
2022-12-03T00:21:36.529Z,95899.16
2022-12-03T00:24:05.092Z,95938.78
2022-12-03T00:26:33.761Z,95937.19
2022-12-03T00:29:02.465Z,95935.94
2022-12-03T00:31:32.668Z,95898.78
2022-12-03T00:34:01.017Z,95936.75
2022-12-03T00:36:29.795Z,95937.19
2022-12-03T00:38:58.093Z,95873.88
2022-12-03T00:41:26.408Z,95922.44
2022-12-03T00:43:57.698Z,95940.06
2022-12-03T00:46:26.301Z,95858.97
2022-12-03T00:48:56.415Z,95937.94
2022-12-03T00:51:24.677Z,95927.72
2022-12-03T00:53:53.098Z,95939.13
2022-12-03T00:56:21.493Z,95815.88
2022-12-03T00:58:49.846Z,95917.97
2022-12-03T01:01:18.358Z,95915.06
2022-12-03T01:03:46.882Z,95937.16
2022-12-03T01:06:16.615Z,95938.19
2022-12-03T01:08:44.938Z,95938.44
2022-12-03T01:11:26.967Z,95878.06
2022-12-03T01:13:55.273Z,95936.88
2022-12-03T01:16:23.678Z,95914.69
2022-12-03T01:18:53.051Z,95921.97
2022-12-03T01:21:22.898Z,95920.13
2022-12-03T01:23:51.304Z,95931.09
2022-12-03T01:26:19.605Z,95937.72
2022-12-03T01:28:48.213Z,95858.34
2022-12-03T01:31:33.831Z,95937.59
2022-12-03T01:34:02.251Z,95937.16
2022-12-03T01:36:32.024Z,95938.63
2022-12-03T01:39:00.395Z,95935.53
2022-12-03T01:41:29.271Z,95930.25
2022-12-03T01:43:59.334Z,95929.59
2022-12-03T01:46:33.309Z,95893.88
2022-12-03T01:49:02.466Z,95931.88
2022-12-03T01:51:32.721Z,95929.81
2022-12-03T01:54:02.291Z,95932.84
2022-12-03T01:56:30.630Z,95890.34
2022-12-03T01:58:59.032Z,95919.19
2022-12-03T02:01:27.430Z,95924.72
2022-12-03T02:03:56.194Z,95925.34
2022-12-03T02:06:27.586Z,95915.50
2022-12-03T02:09:00.182Z,95822.09
2022-12-03T02:11:33.353Z,95925.97
2022-12-03T02:14:06.833Z,95907.69
2022-12-03T02:16:36.600Z,95933.44
2022-12-03T02:19:10.003Z,95934.50
2022-12-03T02:21:45.893Z,95893.88
2022-12-03T02:24:24.102Z,95902.94
2022-12-03T02:26:54.507Z,95923.34
2022-12-03T02:29:23.615Z,95927.75
2022-12-03T02:31:52.394Z,95927.91
2022-12-03T02:34:38.410Z,95915.91
2022-12-03T02:37:08.853Z,95930.97
2022-12-03T02:39:41.223Z,95915.56
2022-12-03T02:42:29.270Z,95933.28
2022-12-03T02:45:04.684Z,95920.41
2022-12-03T02:47:35.619Z,95935.28
2022-12-03T02:50:04.702Z,95930.16
2022-12-03T02:52:33.671Z,95904.44
2022-12-03T02:55:04.017Z,95923.25
2022-12-03T02:57:34.880Z,95865.28
2022-12-03T03:00:03.427Z,95930.59
2022-12-03T03:02:31.963Z,95878.19
2022-12-03T03:05:01.017Z,95926.56
2022-12-03T03:07:30.005Z,95862.28
2022-12-03T03:09:59.242Z,95916.38
2022-12-03T03:12:27.757Z,95907.00
2022-12-03T03:14:57.676Z,95926.25
2022-12-03T03:17:26.224Z,95895.63
2022-12-03T03:19:54.764Z,95938.50
2022-12-03T03:22:23.167Z,95870.16
2022-12-03T03:24:51.804Z,95935.16
2022-12-03T03:27:20.571Z,95876.34
2022-12-03T03:29:48.931Z,95933.13
2022-12-03T03:32:18.973Z,95915.56
2022-12-03T03:34:47.352Z,95914.38
2022-12-03T03:37:15.837Z,95922.94
2022-12-03T03:39:44.457Z,95898.13
2022-12-03T03:42:13.107Z,95930.88
2022-12-03T03:44:42.291Z,95907.56
2022-12-03T03:47:10.834Z,95934.66
2022-12-03T03:49:40.758Z,95934.50
2022-12-03T03:52:11.837Z,95893.88
2022-12-03T03:54:41.858Z,95917.88
2022-12-03T03:57:10.231Z,95928.44
2022-12-03T03:59:38.692Z,95933.16
2022-12-03T04:02:07.389Z,95853.38
2022-12-03T04:04:38.049Z,95897.81
2022-12-03T04:07:08.673Z,95882.53
2022-12-03T04:09:36.981Z,95918.75
2022-12-03T04:12:23.254Z,95918.88
2022-12-03T04:14:51.914Z,95923.50
2022-12-03T04:17:20.548Z,95924.31
2022-12-03T04:19:48.904Z,95922.13
2022-12-03T04:22:35.936Z,95913.03
2022-12-03T04:25:18.089Z,95917.66
2022-12-03T04:28:03.836Z,95916.06
2022-12-03T04:30:32.503Z,95817.91
2022-12-03T04:33:18.258Z,95909.34
2022-12-03T04:35:46.812Z,95896.25
2022-12-03T04:38:17.754Z,95902.34
2022-12-03T04:41:02.797Z,95915.63
2022-12-03T04:43:32.895Z,95911.00
2022-12-03T04:46:01.819Z,95834.22
2022-12-03T04:48:30.220Z,95891.06
2022-12-03T04:50:58.517Z,95912.69
2022-12-03T04:53:28.313Z,95909.47
2022-12-03T04:55:56.660Z,95901.16
2022-12-03T04:58:24.971Z,95912.94
2022-12-03T05:00:53.398Z,95908.44
2022-12-03T05:03:21.824Z,95909.47
2022-12-03T05:05:50.118Z,95904.41
2022-12-03T05:08:18.574Z,95902.78
2022-12-03T05:10:48.390Z,95899.72
2022-12-03T05:13:16.710Z,95897.25
2022-12-03T05:15:44.955Z,95898.34
2022-12-03T05:18:13.374Z,95874.88
2022-12-03T05:20:49.764Z,95880.00
2022-12-03T05:23:19.859Z,95851.47
2022-12-03T05:25:49.753Z,95890.00
2022-12-03T05:28:18.198Z,95891.25
2022-12-03T05:30:46.636Z,95840.03
2022-12-03T05:33:15.044Z,95890.47
2022-12-03T05:35:43.354Z,95892.25
2022-12-03T05:38:11.854Z,95893.66
2022-12-03T05:40:40.314Z,95844.94
2022-12-03T05:43:09.147Z,95859.03
2022-12-03T05:45:39.472Z,95900.81
2022-12-03T05:48:09.329Z,95869.84
2022-12-03T05:50:39.740Z,95891.28
2022-12-03T05:53:08.213Z,95891.47
2022-12-03T05:55:36.549Z,95891.06
2022-12-03T05:58:05.036Z,95890.47
2022-12-03T06:00:42.417Z,95893.91
2022-12-03T06:03:12.122Z,95883.53
2022-12-03T06:05:40.564Z,95903.88
2022-12-03T06:08:09.086Z,95902.84
2022-12-03T06:10:38.053Z,95895.31
2022-12-03T06:13:06.350Z,95883.47
2022-12-03T06:15:41.987Z,95900.59
2022-12-03T06:18:12.204Z,95887.53
2022-12-03T06:20:40.605Z,95893.06
2022-12-03T06:23:09.000Z,95896.94
2022-12-03T06:25:37.322Z,95902.63
2022-12-03T06:28:07.186Z,95904.06
2022-12-03T06:30:37.387Z,95894.47
2022-12-03T06:33:05.855Z,95904.28
2022-12-03T06:35:34.241Z,95894.72
2022-12-03T06:38:02.649Z,95895.69
2022-12-03T06:43:13.816Z,95900.47
2022-12-03T06:45:47.669Z,95876.56
2022-12-03T06:48:17.243Z,95907.84
2022-12-03T06:50:45.565Z,95904.59
2022-12-03T06:53:13.888Z,95904.53
2022-12-03T06:55:42.394Z,95897.81
2022-12-03T06:58:10.763Z,95900.47
2022-12-03T07:00:39.085Z,95899.59
2022-12-03T07:03:09.329Z,95902.50
2022-12-03T07:05:37.879Z,95905.38
2022-12-03T07:08:06.822Z,95902.13
2022-12-03T07:10:35.829Z,95900.16
2022-12-03T07:13:04.225Z,95900.34
2022-12-03T07:15:32.511Z,95840.06
2022-12-03T07:18:00.855Z,95887.03
2022-12-03T07:20:30.887Z,95899.69
2022-12-03T07:22:59.294Z,95900.06
2022-12-03T07:25:27.558Z,95900.91
2022-12-03T07:27:55.985Z,95900.91
2022-12-03T07:30:25.823Z,95907.00
2022-12-03T07:32:54.340Z,95899.69
2022-12-03T07:35:22.916Z,95812.56
2022-12-03T07:37:52.739Z,95904.59
2022-12-03T07:40:21.419Z,95928.56
2022-12-03T07:42:49.739Z,95898.03
2022-12-03T07:45:18.222Z,95906.84
2022-12-03T07:47:46.537Z,95902.16
2022-12-03T07:50:14.903Z,95854.66
2022-12-03T07:52:43.294Z,95889.75
2022-12-03T07:55:13.628Z,95899.72
2022-12-03T07:57:42.047Z,95907.06
2022-12-03T08:00:11.917Z,95909.88
2022-12-03T08:02:40.375Z,95899.09
2022-12-03T08:05:09.232Z,95896.13
2022-12-03T08:07:37.804Z,95910.38
2022-12-03T08:10:07.512Z,95861.09
2022-12-03T08:12:42.346Z,95873.53
2022-12-03T08:15:14.138Z,95902.50
2022-12-03T08:17:42.553Z,95904.34
2022-12-03T08:20:16.077Z,95867.81
2022-12-03T08:22:45.345Z,95840.06
2022-12-03T08:25:21.261Z,95915.78
2022-12-03T08:27:52.206Z,95903.81
2022-12-03T08:30:21.704Z,95904.63
2022-12-03T08:32:50.326Z,95918.72
2022-12-03T08:35:23.935Z,95900.59
2022-12-03T08:37:56.234Z,95912.25
2022-12-03T08:40:34.758Z,95921.00
2022-12-03T08:43:14.173Z,95922.66
2022-12-03T08:45:44.308Z,95923.06
2022-12-03T08:48:34.190Z,95919.00
2022-12-03T08:51:07.717Z,95918.63
2022-12-03T08:53:37.813Z,95913.31
2022-12-03T08:56:16.541Z,95911.69
2022-12-03T08:58:49.151Z,95871.91
2022-12-03T09:01:32.435Z,95901.09
2022-12-03T09:04:15.652Z,95890.22
2022-12-03T09:06:44.196Z,95908.34
2022-12-03T09:09:12.908Z,95905.09
2022-12-03T09:11:43.261Z,95896.56
2022-12-03T09:14:18.258Z,95907.56
2022-12-03T09:16:48.032Z,95905.13
2022-12-03T09:19:16.785Z,95903.56
2022-12-03T09:21:45.279Z,95908.81
2022-12-03T09:24:14.129Z,95902.72
2022-12-03T09:26:42.544Z,95900.28
2022-12-03T09:29:12.913Z,95908.41
2022-12-03T09:31:41.788Z,95908.25
2022-12-03T09:34:10.620Z,95894.94
2022-12-03T09:36:39.063Z,95863.94
2022-12-03T09:39:07.785Z,95899.09
2022-12-03T09:41:36.243Z,95895.25
2022-12-03T09:44:05.717Z,95892.41
2022-12-03T09:46:37.632Z,95893.41
2022-12-03T09:49:13.974Z,95895.00
2022-12-03T09:51:45.287Z,95739.59
2022-12-03T09:54:23.542Z,95879.50
2022-12-03T09:56:52.234Z,95882.38
2022-12-03T09:59:20.747Z,95871.78
2022-12-03T10:01:50.813Z,95876.69
2022-12-03T10:04:19.428Z,95873.88
2022-12-03T10:06:48.331Z,95845.72
2022-12-03T10:09:21.134Z,95867.75
2022-12-03T10:11:49.626Z,95846.31
2022-12-03T10:14:20.232Z,95862.06
2022-12-03T10:16:48.783Z,95864.69
2022-12-03T10:19:25.159Z,95858.00
2022-12-03T10:21:53.683Z,95853.09
2022-12-03T10:24:26.677Z,95842.69
2022-12-03T10:26:57.423Z,95849.41
2022-12-03T10:29:33.324Z,95849.44
2022-12-03T10:32:03.659Z,95831.94
2022-12-03T10:34:35.238Z,95847.22
2022-12-03T10:37:15.528Z,95843.34
2022-12-03T10:40:01.515Z,95843.34
2022-12-03T10:42:31.901Z,95836.41
2022-12-03T10:45:15.753Z,95838.84
2022-12-03T10:47:44.731Z,95831.94
2022-12-03T10:50:21.522Z,95829.91
2022-12-03T10:52:49.952Z,95747.91
2022-12-03T10:55:18.399Z,95802.34
2022-12-03T10:57:47.235Z,95824.78
2022-12-03T11:00:20.527Z,95820.91
2022-12-03T11:02:54.863Z,95828.63
2022-12-03T11:05:28.855Z,95800.53
2022-12-03T11:07:58.128Z,95827.44
2022-12-03T11:10:26.731Z,95809.06
2022-12-03T11:13:30.982Z,95833.13
2022-12-03T11:15:59.796Z,95797.28
2022-12-03T11:19:00.051Z,95835.59
2022-12-03T11:21:30.594Z,95828.28
2022-12-03T11:24:16.172Z,95804.41
2022-12-03T11:27:27.183Z,95835.38
2022-12-03T11:30:04.454Z,95821.75
2022-12-03T11:33:06.464Z,95822.38
2022-12-03T11:35:59.765Z,95819.91
2022-12-03T11:38:58.290Z,95817.69
2022-12-03T11:41:29.685Z,95814.44
2022-12-03T11:44:28.486Z,95798.16
2022-12-03T11:46:59.093Z,95814.00
2022-12-03T11:49:36.795Z,95807.91
2022-12-03T11:52:20.722Z,95797.72
2022-12-03T11:54:53.489Z,95799.13
2022-12-03T11:57:29.923Z,95802.00
2022-12-03T11:59:59.647Z,95780.41
2022-12-03T12:02:28.035Z,95792.44
2022-12-03T12:04:56.456Z,95794.06
2022-12-03T12:07:37.823Z,95785.50
2022-12-03T12:10:09.141Z,95774.09
2022-12-03T12:12:40.914Z,95776.94
2022-12-03T12:15:44.424Z,95781.03
2022-12-03T12:18:37.668Z,95771.88
2022-12-03T12:21:40.073Z,95779.41
2022-12-03T12:24:36.068Z,95771.25
2022-12-03T12:27:08.246Z,95735.81
2022-12-03T12:29:37.157Z,95756.59
2022-12-03T12:32:16.051Z,95742.53
2022-12-03T12:34:46.291Z,95740.50
2022-12-03T12:37:22.715Z,95741.13
2022-12-03T12:39:55.769Z,95727.69
2022-12-03T12:42:34.809Z,95727.69
2022-12-03T12:45:13.841Z,95727.69
2022-12-03T12:47:49.106Z,95726.84
2022-12-03T12:50:19.027Z,95714.25
2022-12-03T12:52:53.612Z,95722.78
2022-12-03T12:55:24.035Z,95714.22
2022-12-03T12:57:53.892Z,95721.16
2022-12-03T13:00:24.531Z,95713.41
2022-12-03T13:02:56.560Z,95673.50
2022-12-03T13:05:27.891Z,95718.69
2022-12-03T13:07:56.580Z,95739.50
2022-12-03T13:10:38.030Z,95743.75
2022-12-03T13:13:21.743Z,95739.91
2022-12-03T13:15:53.704Z,95742.53
2022-12-03T13:18:28.846Z,95743.34
2022-12-03T13:20:57.416Z,95738.69
2022-12-03T13:23:31.746Z,95749.66
2022-12-03T13:26:13.163Z,95744.78
2022-12-03T13:28:53.110Z,95743.97
2022-12-03T13:31:28.018Z,95747.44
2022-12-03T13:33:57.691Z,95693.88
2022-12-03T13:36:37.466Z,95739.09
2022-12-03T13:39:14.975Z,95742.31
2022-12-03T13:42:01.118Z,95732.75
2022-12-03T13:44:32.621Z,95685.53
2022-12-03T13:47:03.583Z,95737.66
2022-12-03T13:49:32.970Z,95733.38
2022-12-03T13:52:02.277Z,95728.69
2022-12-03T13:54:36.989Z,95729.72
2022-12-03T13:57:06.146Z,95727.25
2022-12-03T13:59:35.930Z,95728.47
2022-12-03T14:02:04.399Z,95731.56
2022-12-03T14:04:32.782Z,95727.25
2022-12-03T14:07:01.160Z,95723.00
2022-12-03T14:09:29.594Z,95716.28
2022-12-03T14:12:15.346Z,95722.38
2022-12-03T14:14:45.643Z,95721.56
2022-12-03T14:17:14.118Z,95647.03
2022-12-03T14:19:42.536Z,95727.66
2022-12-03T14:22:10.958Z,95730.94
2022-12-03T14:24:40.045Z,95653.56
2022-12-03T14:27:08.415Z,95750.47
2022-12-03T14:29:36.848Z,95754.97
2022-12-03T14:32:06.856Z,95748.25
2022-12-03T14:34:35.291Z,95707.50
2022-12-03T14:37:03.711Z,95733.59
2022-12-03T14:39:32.194Z,95694.28
2022-12-03T14:42:15.745Z,95738.47
2022-12-03T14:44:45.836Z,95730.72
2022-12-03T14:47:17.096Z,95736.41
2022-12-03T14:49:45.690Z,95735.81
2022-12-03T14:52:14.058Z,95736.41
2022-12-03T14:54:43.460Z,95739.66
2022-12-03T14:57:12.929Z,95733.75
2022-12-03T14:59:41.634Z,95723.19
2022-12-03T15:02:10.497Z,95734.19
2022-12-03T15:04:41.737Z,95699.16
2022-12-03T15:07:11.110Z,95720.94
2022-12-03T15:09:39.824Z,95716.69
2022-12-03T15:12:09.024Z,95715.84
2022-12-03T15:14:37.354Z,95732.16
2022-12-03T15:17:05.687Z,95735.38
2022-12-03T15:19:34.501Z,95679.59
2022-12-03T15:22:04.339Z,95707.06
2022-12-03T15:24:32.800Z,95714.41
2022-12-03T15:27:01.074Z,95728.06
2022-12-03T15:29:30.447Z,95723.97
2022-12-03T15:31:59.491Z,95720.72
2022-12-03T15:34:28.814Z,95730.06
2022-12-03T15:36:57.089Z,95711.34
2022-12-03T15:39:26.944Z,95725.59
2022-12-03T15:41:55.259Z,95726.00
2022-12-03T15:44:23.630Z,95720.31
2022-12-03T15:46:51.889Z,95721.97
2022-12-03T15:49:20.243Z,95724.59
2022-12-03T15:51:48.547Z,95715.00
2022-12-03T15:54:16.897Z,95684.22
2022-12-03T15:56:46.982Z,95671.38
2022-12-03T15:59:15.413Z,95734.50
2022-12-03T16:01:43.936Z,95720.28
2022-12-03T16:04:12.329Z,95723.56
2022-12-03T16:06:40.593Z,95725.16
2022-12-03T16:09:09.017Z,95721.88
2022-12-03T16:11:37.356Z,95722.69
2022-12-03T16:14:07.184Z,95727.56
2022-12-03T16:16:35.749Z,95731.63
2022-12-03T16:19:04.133Z,95711.69
2022-12-03T16:21:34.786Z,95722.69
2022-12-03T16:24:04.181Z,95728.63
2022-12-03T16:26:32.955Z,95721.91
2022-12-03T16:29:01.263Z,95714.59
2022-12-03T16:31:31.253Z,95688.50
2022-12-03T16:33:59.824Z,95705.44
2022-12-03T16:36:28.202Z,95721.13
2022-12-03T16:38:56.461Z,95710.56
2022-12-03T16:41:24.903Z,95730.50
2022-12-03T16:43:53.203Z,95715.03
2022-12-03T16:46:25.788Z,95720.31
2022-12-03T16:48:58.077Z,95727.44
2022-12-03T16:51:26.841Z,95726.44
2022-12-03T16:53:55.568Z,95733.13
2022-12-03T16:56:23.889Z,95724.81
2022-12-03T16:58:52.380Z,95677.56
2022-12-03T17:01:20.744Z,95722.16
2022-12-03T17:03:49.210Z,95685.72
2022-12-03T17:06:18.897Z,95728.66
2022-12-03T17:08:50.242Z,95725.19
2022-12-03T17:11:19.255Z,95662.72
2022-12-03T17:13:47.680Z,95680.84
2022-12-03T17:16:16.158Z,95715.03
2022-12-03T17:18:44.489Z,95710.75
2022-12-03T17:21:12.851Z,95705.69
2022-12-03T17:23:42.711Z,95710.97
2022-12-03T17:26:11.002Z,95699.56
2022-12-03T17:28:39.454Z,95711.34
2022-12-03T17:31:07.852Z,95697.94
2022-12-03T17:33:36.421Z,95672.50
2022-12-03T17:36:05.437Z,95699.56
2022-12-03T17:38:38.837Z,95698.34
2022-12-03T17:41:09.163Z,95690.63
2022-12-03T17:43:37.566Z,95673.94
2022-12-03T17:46:07.533Z,95683.69
2022-12-03T17:48:54.080Z,95692.44
2022-12-03T17:51:22.432Z,95687.97
2022-12-03T17:53:50.848Z,95685.72
2022-12-03T17:56:20.990Z,95679.41
2022-12-03T17:58:49.656Z,95683.69
2022-12-03T18:01:18.071Z,95681.03
2022-12-03T18:03:47.189Z,95684.13
2022-12-03T18:06:15.519Z,95674.75
2022-12-03T18:08:43.898Z,95615.50
2022-12-03T18:11:12.335Z,95679.63
2022-12-03T18:13:42.725Z,95650.91
2022-12-03T18:16:11.558Z,95680.00
2022-12-03T18:18:39.901Z,95688.53
2022-12-03T18:21:08.443Z,95685.50
2022-12-03T18:23:37.277Z,95679.81
2022-12-03T18:26:06.770Z,95674.75
2022-12-03T18:28:35.268Z,95678.41
2022-12-03T18:31:10.506Z,95645.81
2022-12-03T18:33:38.987Z,95682.03
2022-12-03T18:36:13.469Z,95686.94
2022-12-03T18:38:43.442Z,95629.75
2022-12-03T18:41:11.877Z,95661.50
2022-12-03T18:43:43.362Z,95687.75
2022-12-03T18:46:31.205Z,95679.63
2022-12-03T18:49:03.129Z,95676.34
2022-12-03T18:51:31.465Z,95671.91
2022-12-03T18:53:59.849Z,95676.78
2022-12-03T18:56:28.329Z,95611.25
2022-12-03T18:58:57.036Z,95671.88
2022-12-03T19:01:26.795Z,95607.59
2022-12-03T19:03:55.725Z,95670.06
2022-12-03T19:06:24.360Z,95663.53
2022-12-03T19:08:54.631Z,95665.78
2022-12-03T19:11:23.768Z,95655.63
2022-12-03T19:13:52.811Z,95658.03
2022-12-03T19:16:21.363Z,95663.34
2022-12-03T19:18:53.254Z,95639.13
2022-12-03T19:21:21.508Z,95681.66
2022-12-03T19:24:16.403Z,95659.25
2022-12-03T19:26:39.493Z,95664.34
2022-12-03T19:29:08.793Z,95591.91
2022-12-03T19:31:37.217Z,95613.69
2022-12-03T19:34:07.169Z,95660.06
2022-12-03T19:36:35.648Z,95663.72
2022-12-03T19:39:04.362Z,95662.53
2022-12-03T19:41:32.682Z,95657.66
2022-12-03T19:44:03.145Z,95652.75
2022-12-03T19:46:34.907Z,95650.72
2022-12-03T19:49:04.987Z,95652.53
2022-12-03T19:51:36.185Z,95630.38
2022-12-03T19:54:05.421Z,95660.50
2022-12-03T19:56:33.810Z,95653.13
2022-12-03T19:59:02.522Z,95657.66
2022-12-03T20:01:33.388Z,95653.38
2022-12-03T20:04:04.249Z,95655.19
2022-12-03T20:06:36.019Z,95653.56
2022-12-03T20:09:07.748Z,95662.50
2022-12-03T20:11:36.656Z,95652.75
2022-12-03T20:14:08.196Z,95669.25
2022-12-03T20:16:37.271Z,95664.34
2022-12-03T20:19:07.497Z,95658.44
2022-12-03T20:21:39.044Z,95635.66
2022-12-03T20:24:08.265Z,95655.81
2022-12-03T20:26:36.621Z,95661.31
2022-12-03T20:29:05.407Z,95664.13
2022-12-03T20:31:34.198Z,95646.66
2022-12-03T20:34:04.475Z,95666.59
2022-12-03T20:36:33.630Z,95663.94
2022-12-03T20:39:05.395Z,95608.81
2022-12-03T20:41:36.160Z,95636.06
2022-12-03T20:44:06.126Z,95664.97
2022-12-03T20:46:34.550Z,95653.97
2022-12-03T20:49:03.041Z,95618.97
2022-12-03T20:51:32.348Z,95583.13
2022-12-03T20:54:03.206Z,95658.44
2022-12-03T20:56:34.411Z,95652.09
2022-12-03T20:59:04.986Z,95650.50
2022-12-03T21:01:33.771Z,95605.94
2022-12-03T21:04:02.599Z,95651.09
2022-12-03T21:06:31.176Z,95625.88
2022-12-03T21:09:00.977Z,95644.56
2022-12-03T21:11:33.656Z,95635.44
2022-12-03T21:14:02.159Z,95641.13
2022-12-03T21:16:59.695Z,95631.97
2022-12-03T21:19:22.027Z,95633.16
2022-12-03T21:21:50.582Z,95599.59
2022-12-03T21:24:19.281Z,95615.03
2022-12-03T21:26:50.297Z,95589.25
2022-12-03T21:29:18.807Z,95605.50
2022-12-03T21:31:47.294Z,95611.84
2022-12-03T21:34:15.998Z,95627.66
2022-12-03T21:36:44.328Z,95611.19
2022-12-03T21:39:12.883Z,95624.22
2022-12-03T21:41:41.725Z,95590.63
2022-12-03T21:44:31.765Z,95627.03
2022-12-03T21:47:12.530Z,95594.50
2022-12-03T21:49:42.679Z,95573.38
2022-12-03T21:52:11.244Z,95579.44
2022-12-03T21:54:39.626Z,95636.38
2022-12-03T21:57:07.901Z,95639.66
2022-12-03T21:59:37.682Z,95598.59
2022-12-03T22:02:06.397Z,95642.09
2022-12-03T22:04:34.850Z,95639.63
2022-12-03T22:07:03.817Z,95634.56
2022-12-03T22:09:33.286Z,95636.38
2022-12-03T22:12:01.805Z,95615.25
2022-12-03T22:14:30.289Z,95630.69
2022-12-03T22:17:00.417Z,95597.31
2022-12-03T22:19:29.470Z,95632.13
2022-12-03T22:21:57.935Z,95625.78
2022-12-03T22:24:26.562Z,95629.69
2022-12-03T22:26:55.102Z,95628.06
2022-12-03T22:29:24.043Z,95602.03
2022-12-03T22:31:52.311Z,95621.72
2022-12-03T22:34:22.282Z,95618.88
2022-12-03T22:36:51.007Z,95618.47
2022-12-03T22:39:19.462Z,95622.97
2022-12-03T22:41:47.931Z,95605.66
2022-12-03T22:44:16.401Z,95619.66
2022-12-03T22:46:44.806Z,95627.84
2022-12-03T22:49:14.356Z,95598.97
2022-12-03T22:51:46.472Z,95624.97
2022-12-03T22:54:18.303Z,95629.66
2022-12-03T22:56:50.760Z,95627.00
2022-12-03T22:59:19.396Z,95612.97
2022-12-03T23:01:47.824Z,95612.72
2022-12-03T23:04:16.226Z,95606.63
2022-12-03T23:06:46.171Z,95611.53
2022-12-03T23:09:14.549Z,95610.72
2022-12-03T23:11:46.145Z,95613.53
2022-12-03T23:14:14.659Z,95608.66
2022-12-03T23:16:43.067Z,95583.84
2022-12-03T23:19:11.797Z,95570.59
2022-12-03T23:21:40.501Z,95595.22
2022-12-03T23:24:11.398Z,95600.88
2022-12-03T23:26:40.779Z,95591.91
2022-12-03T23:29:09.889Z,95578.09
2022-12-03T23:31:38.913Z,95594.56
2022-12-03T23:34:07.449Z,95597.81
2022-12-03T23:36:36.724Z,95587.63
2022-12-03T23:39:05.615Z,95591.50
2022-12-03T23:41:36.285Z,95585.63
2022-12-03T23:44:04.763Z,95584.56
2022-12-03T23:46:33.217Z,95582.16
2022-12-03T23:49:01.899Z,95456.56
2022-12-03T23:51:30.276Z,95564.22
2022-12-03T23:53:58.600Z,95503.50
2022-12-03T23:56:29.281Z,95565.84
2022-12-03T23:59:00.238Z,95578.44
